Impacts TAF Board INFO
FOR SITUATIONAL AWARENESS. NOT TO BE USED FOR FLIGHT PLANNING PURPOSES.
IDs:

KSFO - San Francisco Intl, CA, US

Issued at 1220 UTC 19 Jun 2018
Updated at 1237 UTC 19 Jun 2018
Potential Impact None Slight Moderate High
Time<<20/13Z 20/14Z 20/15Z 20/16Z 20/17Z 20/18Z 20/19Z 20/20Z 20/21Z 20/22Z 20/23Z 21/00Z 21/01Z
Type PRVL PRVL PRVL PRVL PRVL
VIS >6 >6 >6 >6 >6
CIG 10 10 10 10 --
Cover BKN BKN BKN BKN SCT
FltCat MVFR MVFR MVFR MVFR VFR
WX -- -- -- -- --
WDir 280 280 280 280 270
WSpd 7 7 7 7 8
WGst -- -- -- -- --

Raw TAF
KSFO 191220Z 1912/2018 28009KT P6SM FEW004 BKN008
  TEMPO 1916/1918 SCT012
  FM191800 30006KT P6SM FEW015
  FM192100 29015G25KT P6SM SKC
  FM200400 29013KT P6SM FEW010
  FM200900 28007KT P6SM BKN010
  FM201700 27008KT P6SM SCT015


METAR Board
Radar Display
Forecast Discussion

FOR SITUATIONAL AWARENESS. NOT TO BE USED FOR FLIGHT PLANNING PURPOSES.